sensor_id;sensor_type;location;lat;lon;timestamp;temperature;humidity
15713;DHT22;7957;51.608;6.916;2023-01-10T00:01:30;5.80;99.90
15713;DHT22;7957;51.608;6.916;2023-01-10T00:03:58;5.80;99.90
15713;DHT22;7957;51.608;6.916;2023-01-10T00:06:24;5.80;99.90
15713;DHT22;7957;51.608;6.916;2023-01-10T00:08:51;5.80;99.90
15713;DHT22;7957;51.608;6.916;2023-01-10T00:11:20;5.80;99.90
15713;DHT22;7957;51.608;6.916;2023-01-10T00:14:04;5.80;99.90
15713;DHT22;7957;51.608;6.916;2023-01-10T00:16:31;5.80;99.90
15713;DHT22;7957;51.608;6.916;2023-01-10T00:18:58;5.80;99.90
15713;DHT22;7957;51.608;6.916;2023-01-10T00:21:25;5.80;99.90
15713;DHT22;7957;51.608;6.916;2023-01-10T00:23:54;5.70;99.90
15713;DHT22;7957;51.608;6.916;2023-01-10T00:26:26;5.70;99.90
15713;DHT22;7957;51.608;6.916;2023-01-10T00:28:52;5.70;99.90
15713;DHT22;7957;51.608;6.916;2023-01-10T00:31:19;5.70;99.90
15713;DHT22;7957;51.608;6.916;2023-01-10T00:33:46;5.80;99.90
15713;DHT22;7957;51.608;6.916;2023-01-10T00:36:13;5.80;99.90
15713;DHT22;7957;51.608;6.916;2023-01-10T00:38:40;5.70;99.90
15713;DHT22;7957;51.608;6.916;2023-01-10T00:41:07;5.70;99.90
15713;DHT22;7957;51.608;6.916;2023-01-10T00:43:56;5.70;99.90
15713;DHT22;7957;51.608;6.916;2023-01-10T00:46:21;5.70;99.90
15713;DHT22;7957;51.608;6.916;2023-01-10T00:48:48;5.70;99.90
15713;DHT22;7957;51.608;6.916;2023-01-10T00:51:15;5.70;99.90
15713;DHT22;7957;51.608;6.916;2023-01-10T00:53:42;5.60;99.90
15713;DHT22;7957;51.608;6.916;2023-01-10T00:56:09;5.60;99.90
15713;DHT22;7957;51.608;6.916;2023-01-10T00:58:36;5.60;99.90
15713;DHT22;7957;51.608;6.916;2023-01-10T01:01:06;5.60;99.90
15713;DHT22;7957;51.608;6.916;2023-01-10T01:03:38;5.60;99.90
15713;DHT22;7957;51.608;6.916;2023-01-10T01:06:06;5.60;99.90
15713;DHT22;7957;51.608;6.916;2023-01-10T01:08:34;5.60;99.90
15713;DHT22;7957;51.608;6.916;2023-01-10T01:11:01;5.60;99.90
15713;DHT22;7957;51.608;6.916;2023-01-10T01:13:28;5.60;99.90
15713;DHT22;7957;51.608;6.916;2023-01-10T01:15:57;5.60;99.90
15713;DHT22;7957;51.608;6.916;2023-01-10T01:18:26;5.60;99.90
15713;DHT22;7957;51.608;6.916;2023-01-10T01:20:54;5.60;99.90
15713;DHT22;7957;51.608;6.916;2023-01-10T01:23:22;5.60;99.90
15713;DHT22;7957;51.608;6.916;2023-01-10T01:25:50;5.60;99.90
15713;DHT22;7957;51.608;6.916;2023-01-10T01:28:17;5.60;99.90
15713;DHT22;7957;51.608;6.916;2023-01-10T01:30:44;5.60;99.90
15713;DHT22;7957;51.608;6.916;2023-01-10T01:33:11;5.60;99.90
15713;DHT22;7957;51.608;6.916;2023-01-10T01:35:42;5.60;99.90
15713;DHT22;7957;51.608;6.916;2023-01-10T01:38:09;5.60;99.90
15713;DHT22;7957;51.608;6.916;2023-01-10T01:40:36;5.70;99.90
15713;DHT22;7957;51.608;6.916;2023-01-10T01:43:03;5.60;99.90
15713;DHT22;7957;51.608;6.916;2023-01-10T01:45:35;5.70;99.90
15713;DHT22;7957;51.608;6.916;2023-01-10T01:48:20;5.70;99.90
15713;DHT22;7957;51.608;6.916;2023-01-10T01:50:54;5.70;99.90
15713;DHT22;7957;51.608;6.916;2023-01-10T01:53:27;5.70;99.90
15713;DHT22;7957;51.608;6.916;2023-01-10T01:55:58;5.70;99.90
15713;DHT22;7957;51.608;6.916;2023-01-10T01:58:31;5.70;99.90
15713;DHT22;7957;51.608;6.916;2023-01-10T02:01:01;5.70;99.90
15713;DHT22;7957;51.608;6.916;2023-01-10T02:03:29;5.70;99.90
15713;DHT22;7957;51.608;6.916;2023-01-10T02:05:57;5.70;99.90
15713;DHT22;7957;51.608;6.916;2023-01-10T02:08:25;5.70;99.90
15713;DHT22;7957;51.608;6.916;2023-01-10T02:10:56;5.70;99.90
15713;DHT22;7957;51.608;6.916;2023-01-10T02:13:25;5.70;99.90
15713;DHT22;7957;51.608;6.916;2023-01-10T02:15:53;5.70;99.90
15713;DHT22;7957;51.608;6.916;2023-01-10T02:18:21;5.70;99.90
15713;DHT22;7957;51.608;6.916;2023-01-10T02:21:06;5.70;99.90
15713;DHT22;7957;51.608;6.916;2023-01-10T02:23:53;5.60;99.90
15713;DHT22;7957;51.608;6.916;2023-01-10T02:29:45;5.60;99.90
15713;DHT22;7957;51.608;6.916;2023-01-10T02:32:29;5.60;99.90
15713;DHT22;7957;51.608;6.916;2023-01-10T02:35:08;5.60;99.90
15713;DHT22;7957;51.608;6.916;2023-01-10T02:37:44;5.60;99.90
15713;DHT22;7957;51.608;6.916;2023-01-10T02:40:20;5.60;99.90
15713;DHT22;7957;51.608;6.916;2023-01-10T02:42:54;5.60;99.90
15713;DHT22;7957;51.608;6.916;2023-01-10T02:45:27;5.50;99.90
15713;DHT22;7957;51.608;6.916;2023-01-10T02:47:57;5.50;99.90
15713;DHT22;7957;51.608;6.916;2023-01-10T02:53:19;5.50;99.90
15713;DHT22;7957;51.608;6.916;2023-01-10T02:56:06;5.50;99.90
15713;DHT22;7957;51.608;6.916;2023-01-10T03:01:36;5.50;99.90
15713;DHT22;7957;51.608;6.916;2023-01-10T03:04:15;5.50;99.90
15713;DHT22;7957;51.608;6.916;2023-01-10T03:06:53;5.50;99.90
15713;DHT22;7957;51.608;6.916;2023-01-10T03:09:28;5.50;99.90
15713;DHT22;7957;51.608;6.916;2023-01-10T03:12:00;5.50;99.90
15713;DHT22;7957;51.608;6.916;2023-01-10T03:14:31;5.50;99.90
15713;DHT22;7957;51.608;6.916;2023-01-10T03:17:01;5.60;99.90
15713;DHT22;7957;51.608;6.916;2023-01-10T03:19:34;5.50;99.90
15713;DHT22;7957;51.608;6.916;2023-01-10T03:22:03;5.50;99.90
15713;DHT22;7957;51.608;6.916;2023-01-10T03:24:33;5.50;99.90
15713;DHT22;7957;51.608;6.916;2023-01-10T03:27:06;5.50;99.90
15713;DHT22;7957;51.608;6.916;2023-01-10T03:29:41;5.50;99.90
15713;DHT22;7957;51.608;6.916;2023-01-10T03:32:10;5.50;99.90
15713;DHT22;7957;51.608;6.916;2023-01-10T03:34:40;5.50;99.90
15713;DHT22;7957;51.608;6.916;2023-01-10T03:37:12;5.40;99.90
15713;DHT22;7957;51.608;6.916;2023-01-10T03:39:46;5.40;99.90
15713;DHT22;7957;51.608;6.916;2023-01-10T03:42:22;5.40;99.90
15713;DHT22;7957;51.608;6.916;2023-01-10T03:44:58;5.40;99.90
15713;DHT22;7957;51.608;6.916;2023-01-10T03:47:31;5.40;99.90
15713;DHT22;7957;51.608;6.916;2023-01-10T03:50:03;5.40;99.90
15713;DHT22;7957;51.608;6.916;2023-01-10T03:52:33;5.40;99.90
15713;DHT22;7957;51.608;6.916;2023-01-10T03:55:01;5.30;99.90
15713;DHT22;7957;51.608;6.916;2023-01-10T03:57:29;5.30;99.90
15713;DHT22;7957;51.608;6.916;2023-01-10T03:59:57;5.30;99.90
15713;DHT22;7957;51.608;6.916;2023-01-10T04:02:29;5.30;99.90
15713;DHT22;7957;51.608;6.916;2023-01-10T04:04:57;5.30;99.90
15713;DHT22;7957;51.608;6.916;2023-01-10T04:07:26;5.20;99.90
15713;DHT22;7957;51.608;6.916;2023-01-10T04:09:53;5.20;99.90
15713;DHT22;7957;51.608;6.916;2023-01-10T04:12:20;5.20;99.90
15713;DHT22;7957;51.608;6.916;2023-01-10T04:14:47;5.20;99.90
15713;DHT22;7957;51.608;6.916;2023-01-10T04:17:15;5.20;99.90
15713;DHT22;7957;51.608;6.916;2023-01-10T04:19:42;5.20;99.90
15713;DHT22;7957;51.608;6.916;2023-01-10T04:22:10;5.20;99.90
15713;DHT22;7957;51.608;6.916;2023-01-10T04:24:40;5.20;99.90
15713;DHT22;7957;51.608;6.916;2023-01-10T04:27:08;5.20;99.90
15713;DHT22;7957;51.608;6.916;2023-01-10T04:29:39;5.20;99.90
15713;DHT22;7957;51.608;6.916;2023-01-10T04:32:05;5.20;99.90
15713;DHT22;7957;51.608;6.916;2023-01-10T04:34:33;5.10;99.90
15713;DHT22;7957;51.608;6.916;2023-01-10T04:37:00;5.10;99.90
15713;DHT22;7957;51.608;6.916;2023-01-10T04:39:27;5.10;99.90
15713;DHT22;7957;51.608;6.916;2023-01-10T04:41:55;5.10;99.90
15713;DHT22;7957;51.608;6.916;2023-01-10T04:44:22;5.10;99.90
15713;DHT22;7957;51.608;6.916;2023-01-10T04:46:52;5.10;99.90
15713;DHT22;7957;51.608;6.916;2023-01-10T04:49:19;5.10;99.90
15713;DHT22;7957;51.608;6.916;2023-01-10T04:51:47;5.10;99.90
15713;DHT22;7957;51.608;6.916;2023-01-10T04:54:17;5.00;99.90
15713;DHT22;7957;51.608;6.916;2023-01-10T04:56:45;5.10;99.90
15713;DHT22;7957;51.608;6.916;2023-01-10T04:59:13;5.10;99.90
15713;DHT22;7957;51.608;6.916;2023-01-10T05:01:40;5.00;99.90
15713;DHT22;7957;51.608;6.916;2023-01-10T05:04:07;5.10;99.90
15713;DHT22;7957;51.608;6.916;2023-01-10T05:06:34;5.10;99.90
15713;DHT22;7957;51.608;6.916;2023-01-10T05:09:04;5.00;99.90
15713;DHT22;7957;51.608;6.916;2023-01-10T05:11:31;5.00;99.90
15713;DHT22;7957;51.608;6.916;2023-01-10T05:13:58;5.00;99.90
15713;DHT22;7957;51.608;6.916;2023-01-10T05:16:26;5.00;99.90
15713;DHT22;7957;51.608;6.916;2023-01-10T05:18:53;5.00;99.90
15713;DHT22;7957;51.608;6.916;2023-01-10T05:21:20;5.00;99.90
15713;DHT22;7957;51.608;6.916;2023-01-10T05:23:47;5.00;99.90
15713;DHT22;7957;51.608;6.916;2023-01-10T05:26:15;5.00;99.90
15713;DHT22;7957;51.608;6.916;2023-01-10T05:28:44;5.00;99.90
15713;DHT22;7957;51.608;6.916;2023-01-10T05:31:12;5.00;99.90
15713;DHT22;7957;51.608;6.916;2023-01-10T05:33:44;5.00;99.90
15713;DHT22;7957;51.608;6.916;2023-01-10T05:36:11;4.90;99.90
15713;DHT22;7957;51.608;6.916;2023-01-10T05:38:39;4.90;99.90
15713;DHT22;7957;51.608;6.916;2023-01-10T05:41:06;4.90;99.90
15713;DHT22;7957;51.608;6.916;2023-01-10T05:43:33;4.90;99.90
15713;DHT22;7957;51.608;6.916;2023-01-10T05:46:00;4.90;99.90
15713;DHT22;7957;51.608;6.916;2023-01-10T05:48:27;4.90;99.90
15713;DHT22;7957;51.608;6.916;2023-01-10T05:50:55;4.90;99.90
15713;DHT22;7957;51.608;6.916;2023-01-10T05:53:23;4.90;99.90
15713;DHT22;7957;51.608;6.916;2023-01-10T05:55:54;4.90;99.90
15713;DHT22;7957;51.608;6.916;2023-01-10T05:58:22;4.80;99.90
15713;DHT22;7957;51.608;6.916;2023-01-10T06:00:49;4.80;99.90
15713;DHT22;7957;51.608;6.916;2023-01-10T06:03:17;4.80;99.90
15713;DHT22;7957;51.608;6.916;2023-01-10T06:05:44;4.80;99.90
15713;DHT22;7957;51.608;6.916;2023-01-10T06:08:13;4.80;99.90
15713;DHT22;7957;51.608;6.916;2023-01-10T06:10:40;4.80;99.90
15713;DHT22;7957;51.608;6.916;2023-01-10T06:13:07;4.80;99.90
15713;DHT22;7957;51.608;6.916;2023-01-10T06:15:35;4.80;99.90
15713;DHT22;7957;51.608;6.916;2023-01-10T06:18:02;4.80;99.90
15713;DHT22;7957;51.608;6.916;2023-01-10T06:20:30;4.80;99.90
15713;DHT22;7957;51.608;6.916;2023-01-10T06:22:57;4.80;99.90
15713;DHT22;7957;51.608;6.916;2023-01-10T06:25:30;4.70;99.90
15713;DHT22;7957;51.608;6.916;2023-01-10T06:27:58;4.70;99.90
15713;DHT22;7957;51.608;6.916;2023-01-10T06:30:25;4.70;99.90
15713;DHT22;7957;51.608;6.916;2023-01-10T06:32:52;4.70;99.90
15713;DHT22;7957;51.608;6.916;2023-01-10T06:35:19;4.70;99.90
15713;DHT22;7957;51.608;6.916;2023-01-10T06:37:46;4.70;99.90
15713;DHT22;7957;51.608;6.916;2023-01-10T06:40:13;4.70;99.90
15713;DHT22;7957;51.608;6.916;2023-01-10T06:42:41;4.70;99.90
15713;DHT22;7957;51.608;6.916;2023-01-10T06:45:09;4.70;99.90
15713;DHT22;7957;51.608;6.916;2023-01-10T06:47:36;4.60;99.90
15713;DHT22;7957;51.608;6.916;2023-01-10T06:50:04;4.60;99.90
15713;DHT22;7957;51.608;6.916;2023-01-10T06:52:32;4.60;99.90
15713;DHT22;7957;51.608;6.916;2023-01-10T06:54:59;4.60;99.90
15713;DHT22;7957;51.608;6.916;2023-01-10T06:57:25;4.60;99.90
15713;DHT22;7957;51.608;6.916;2023-01-10T06:59:54;4.60;99.90
15713;DHT22;7957;51.608;6.916;2023-01-10T07:02:21;4.70;99.90
15713;DHT22;7957;51.608;6.916;2023-01-10T07:04:48;4.70;99.90
15713;DHT22;7957;51.608;6.916;2023-01-10T07:07:15;4.70;99.90
15713;DHT22;7957;51.608;6.916;2023-01-10T07:09:42;4.70;99.90
15713;DHT22;7957;51.608;6.916;2023-01-10T07:12:09;4.70;99.90
15713;DHT22;7957;51.608;6.916;2023-01-10T07:14:36;4.70;99.90
15713;DHT22;7957;51.608;6.916;2023-01-10T07:17:07;4.70;99.90
15713;DHT22;7957;51.608;6.916;2023-01-10T07:19:34;4.70;99.90
15713;DHT22;7957;51.608;6.916;2023-01-10T07:22:01;4.70;99.90
15713;DHT22;7957;51.608;6.916;2023-01-10T07:24:28;4.70;99.90
15713;DHT22;7957;51.608;6.916;2023-01-10T07:26:55;4.70;99.90
15713;DHT22;7957;51.608;6.916;2023-01-10T07:29:21;4.70;99.90
15713;DHT22;7957;51.608;6.916;2023-01-10T07:31:48;4.80;99.90
15713;DHT22;7957;51.608;6.916;2023-01-10T07:34:17;4.80;99.90
15713;DHT22;7957;51.608;6.916;2023-01-10T07:36:44;4.80;99.90
15713;DHT22;7957;51.608;6.916;2023-01-10T07:39:11;4.80;99.90
15713;DHT22;7957;51.608;6.916;2023-01-10T07:41:38;4.80;99.90
15713;DHT22;7957;51.608;6.916;2023-01-10T07:44:07;4.80;99.90
15713;DHT22;7957;51.608;6.916;2023-01-10T07:46:34;4.80;99.90
15713;DHT22;7957;51.608;6.916;2023-01-10T07:49:01;4.80;99.90
15713;DHT22;7957;51.608;6.916;2023-01-10T07:51:30;4.80;99.90
15713;DHT22;7957;51.608;6.916;2023-01-10T07:53:58;4.90;99.90
15713;DHT22;7957;51.608;6.916;2023-01-10T07:56:26;4.90;99.90
15713;DHT22;7957;51.608;6.916;2023-01-10T07:58:55;4.90;99.90
15713;DHT22;7957;51.608;6.916;2023-01-10T08:01:23;4.90;99.90
15713;DHT22;7957;51.608;6.916;2023-01-10T08:03:53;4.90;99.90
15713;DHT22;7957;51.608;6.916;2023-01-10T08:06:22;4.90;99.90
15713;DHT22;7957;51.608;6.916;2023-01-10T08:08:53;5.00;99.90
15713;DHT22;7957;51.608;6.916;2023-01-10T08:11:23;5.00;99.90
15713;DHT22;7957;51.608;6.916;2023-01-10T08:13:54;5.00;99.90
15713;DHT22;7957;51.608;6.916;2023-01-10T08:16:20;5.00;99.90
15713;DHT22;7957;51.608;6.916;2023-01-10T08:18:47;5.00;99.90
15713;DHT22;7957;51.608;6.916;2023-01-10T08:21:14;5.00;99.90
15713;DHT22;7957;51.608;6.916;2023-01-10T08:23:44;5.10;99.90
15713;DHT22;7957;51.608;6.916;2023-01-10T08:26:12;5.10;99.90
15713;DHT22;7957;51.608;6.916;2023-01-10T08:28:40;5.20;99.90
15713;DHT22;7957;51.608;6.916;2023-01-10T08:31:07;5.10;99.90
15713;DHT22;7957;51.608;6.916;2023-01-10T08:33:36;5.20;99.90
15713;DHT22;7957;51.608;6.916;2023-01-10T08:36:04;5.20;99.90
15713;DHT22;7957;51.608;6.916;2023-01-10T08:38:31;5.20;99.90
15713;DHT22;7957;51.608;6.916;2023-01-10T08:40:58;5.20;99.90
15713;DHT22;7957;51.608;6.916;2023-01-10T08:43:26;5.20;99.90
15713;DHT22;7957;51.608;6.916;2023-01-10T08:45:53;5.20;99.90
15713;DHT22;7957;51.608;6.916;2023-01-10T08:48:20;5.30;99.90
15713;DHT22;7957;51.608;6.916;2023-01-10T08:50:47;5.30;99.90
15713;DHT22;7957;51.608;6.916;2023-01-10T08:53:14;5.30;99.90
15713;DHT22;7957;51.608;6.916;2023-01-10T08:55:41;5.30;99.90
15713;DHT22;7957;51.608;6.916;2023-01-10T08:58:09;5.40;99.90
15713;DHT22;7957;51.608;6.916;2023-01-10T09:00:37;5.50;99.90
15713;DHT22;7957;51.608;6.916;2023-01-10T09:03:05;5.50;99.90
15713;DHT22;7957;51.608;6.916;2023-01-10T09:05:33;5.50;99.90
15713;DHT22;7957;51.608;6.916;2023-01-10T09:08:01;5.50;99.90
15713;DHT22;7957;51.608;6.916;2023-01-10T09:10:29;5.50;99.90
15713;DHT22;7957;51.608;6.916;2023-01-10T09:12:56;5.50;99.90
15713;DHT22;7957;51.608;6.916;2023-01-10T09:15:27;5.50;99.90
15713;DHT22;7957;51.608;6.916;2023-01-10T09:17:57;5.50;99.90
15713;DHT22;7957;51.608;6.916;2023-01-10T09:20:26;5.50;99.90
15713;DHT22;7957;51.608;6.916;2023-01-10T09:22:53;5.60;99.90
15713;DHT22;7957;51.608;6.916;2023-01-10T09:25:30;5.60;99.90
15713;DHT22;7957;51.608;6.916;2023-01-10T09:28:29;5.60;99.90
15713;DHT22;7957;51.608;6.916;2023-01-10T09:30:56;5.60;99.90
15713;DHT22;7957;51.608;6.916;2023-01-10T09:33:27;5.60;99.90
15713;DHT22;7957;51.608;6.916;2023-01-10T09:35:56;5.60;99.90
15713;DHT22;7957;51.608;6.916;2023-01-10T09:38:38;5.70;99.90
15713;DHT22;7957;51.608;6.916;2023-01-10T09:41:16;5.70;99.90
15713;DHT22;7957;51.608;6.916;2023-01-10T09:44:00;5.80;99.90
15713;DHT22;7957;51.608;6.916;2023-01-10T09:46:44;5.80;99.90
15713;DHT22;7957;51.608;6.916;2023-01-10T09:49:31;5.90;99.90
15713;DHT22;7957;51.608;6.916;2023-01-10T09:52:15;5.90;99.90
15713;DHT22;7957;51.608;6.916;2023-01-10T09:54:49;5.90;99.90
15713;DHT22;7957;51.608;6.916;2023-01-10T09:57:20;6.00;99.90
15713;DHT22;7957;51.608;6.916;2023-01-10T09:59:48;6.00;99.90
15713;DHT22;7957;51.608;6.916;2023-01-10T10:02:24;6.00;99.90
15713;DHT22;7957;51.608;6.916;2023-01-10T10:05:15;6.00;99.90
15713;DHT22;7957;51.608;6.916;2023-01-10T10:07:45;6.00;99.90
15713;DHT22;7957;51.608;6.916;2023-01-10T10:10:22;6.10;99.90
15713;DHT22;7957;51.608;6.916;2023-01-10T10:12:59;6.10;99.90
15713;DHT22;7957;51.608;6.916;2023-01-10T10:15:33;6.10;99.90
15713;DHT22;7957;51.608;6.916;2023-01-10T10:18:11;6.20;99.90
15713;DHT22;7957;51.608;6.916;2023-01-10T10:20:51;6.20;99.90
15713;DHT22;7957;51.608;6.916;2023-01-10T10:23:34;6.20;99.90
15713;DHT22;7957;51.608;6.916;2023-01-10T10:26:12;6.30;99.90
15713;DHT22;7957;51.608;6.916;2023-01-10T10:29:13;6.30;99.90
15713;DHT22;7957;51.608;6.916;2023-01-10T10:31:56;6.30;99.90
15713;DHT22;7957;51.608;6.916;2023-01-10T10:34:30;6.30;99.90
15713;DHT22;7957;51.608;6.916;2023-01-10T10:37:07;6.30;99.90
15713;DHT22;7957;51.608;6.916;2023-01-10T10:39:44;6.30;99.90
15713;DHT22;7957;51.608;6.916;2023-01-10T10:42:16;6.40;99.90
15713;DHT22;7957;51.608;6.916;2023-01-10T10:44:46;6.40;99.90
15713;DHT22;7957;51.608;6.916;2023-01-10T10:47:19;6.30;99.90
15713;DHT22;7957;51.608;6.916;2023-01-10T10:49:50;6.30;99.90
15713;DHT22;7957;51.608;6.916;2023-01-10T10:52:24;6.30;99.90
15713;DHT22;7957;51.608;6.916;2023-01-10T10:54:52;6.40;99.90
15713;DHT22;7957;51.608;6.916;2023-01-10T10:57:26;6.40;99.90
15713;DHT22;7957;51.608;6.916;2023-01-10T10:59:54;6.30;99.90
15713;DHT22;7957;51.608;6.916;2023-01-10T11:02:25;6.30;99.90
15713;DHT22;7957;51.608;6.916;2023-01-10T11:04:55;6.30;99.90
15713;DHT22;7957;51.608;6.916;2023-01-10T11:07:28;6.30;99.90
15713;DHT22;7957;51.608;6.916;2023-01-10T11:09:58;6.40;99.90
15713;DHT22;7957;51.608;6.916;2023-01-10T11:12:37;6.40;99.90
15713;DHT22;7957;51.608;6.916;2023-01-10T11:15:10;6.40;99.90
15713;DHT22;7957;51.608;6.916;2023-01-10T11:17:37;6.40;99.90
15713;DHT22;7957;51.608;6.916;2023-01-10T11:20:13;6.40;99.90
15713;DHT22;7957;51.608;6.916;2023-01-10T11:22:47;6.40;99.90
15713;DHT22;7957;51.608;6.916;2023-01-10T11:25:16;6.40;99.90
15713;DHT22;7957;51.608;6.916;2023-01-10T11:27:47;6.40;99.90
15713;DHT22;7957;51.608;6.916;2023-01-10T11:30:18;6.40;99.90
15713;DHT22;7957;51.608;6.916;2023-01-10T11:32:50;6.40;99.90
15713;DHT22;7957;51.608;6.916;2023-01-10T11:35:20;6.40;99.90
15713;DHT22;7957;51.608;6.916;2023-01-10T11:38:03;6.40;99.90
15713;DHT22;7957;51.608;6.916;2023-01-10T11:40:31;6.50;99.90
15713;DHT22;7957;51.608;6.916;2023-01-10T11:42:59;6.50;99.90
15713;DHT22;7957;51.608;6.916;2023-01-10T11:45:52;6.50;99.90
15713;DHT22;7957;51.608;6.916;2023-01-10T11:48:21;6.50;99.90
15713;DHT22;7957;51.608;6.916;2023-01-10T11:50:52;6.50;99.90
15713;DHT22;7957;51.608;6.916;2023-01-10T11:53:37;6.50;99.90
15713;DHT22;7957;51.608;6.916;2023-01-10T11:56:06;6.50;99.90
15713;DHT22;7957;51.608;6.916;2023-01-10T11:58:39;6.50;99.90
15713;DHT22;7957;51.608;6.916;2023-01-10T12:01:28;6.50;99.90
15713;DHT22;7957;51.608;6.916;2023-01-10T12:03:56;6.50;99.90
15713;DHT22;7957;51.608;6.916;2023-01-10T12:06:23;6.50;99.90
15713;DHT22;7957;51.608;6.916;2023-01-10T12:08:52;6.50;99.90
15713;DHT22;7957;51.608;6.916;2023-01-10T12:11:26;6.50;99.90
15713;DHT22;7957;51.608;6.916;2023-01-10T12:13:56;6.60;99.90
15713;DHT22;7957;51.608;6.916;2023-01-10T12:16:26;6.60;99.90
15713;DHT22;7957;51.608;6.916;2023-01-10T12:18:54;6.60;99.90
15713;DHT22;7957;51.608;6.916;2023-01-10T12:21:29;6.60;99.90
15713;DHT22;7957;51.608;6.916;2023-01-10T12:24:01;6.60;99.90
15713;DHT22;7957;51.608;6.916;2023-01-10T12:26:31;6.60;99.90
15713;DHT22;7957;51.608;6.916;2023-01-10T12:29:10;6.60;99.90
15713;DHT22;7957;51.608;6.916;2023-01-10T12:31:54;6.60;99.90
15713;DHT22;7957;51.608;6.916;2023-01-10T12:34:49;6.60;99.90
15713;DHT22;7957;51.608;6.916;2023-01-10T12:37:33;6.60;99.90
15713;DHT22;7957;51.608;6.916;2023-01-10T12:40:22;6.60;99.90
15713;DHT22;7957;51.608;6.916;2023-01-10T12:43:37;6.60;99.90
15713;DHT22;7957;51.608;6.916;2023-01-10T12:56:01;6.70;99.90
15713;DHT22;7957;51.608;6.916;2023-01-10T12:59:02;6.70;99.90
15713;DHT22;7957;51.608;6.916;2023-01-10T13:01:38;6.80;99.90
15713;DHT22;7957;51.608;6.916;2023-01-10T13:04:35;6.80;99.90
15713;DHT22;7957;51.608;6.916;2023-01-10T13:07:38;6.80;99.90
15713;DHT22;7957;51.608;6.916;2023-01-10T15:25:23;6.60;99.90
15713;DHT22;7957;51.608;6.916;2023-01-10T15:27:53;6.50;99.90
15713;DHT22;7957;51.608;6.916;2023-01-10T15:30:23;6.50;99.90
15713;DHT22;7957;51.608;6.916;2023-01-10T15:32:51;6.50;99.90
15713;DHT22;7957;51.608;6.916;2023-01-10T15:35:21;6.50;99.90
15713;DHT22;7957;51.608;6.916;2023-01-10T15:37:51;6.60;99.90
15713;DHT22;7957;51.608;6.916;2023-01-10T15:40:23;6.50;99.90
15713;DHT22;7957;51.608;6.916;2023-01-10T15:42:51;6.50;99.90
15713;DHT22;7957;51.608;6.916;2023-01-10T15:45:38;6.50;99.90
15713;DHT22;7957;51.608;6.916;2023-01-10T15:48:24;6.50;99.90
15713;DHT22;7957;51.608;6.916;2023-01-10T15:50:56;6.50;99.90
15713;DHT22;7957;51.608;6.916;2023-01-10T15:53:51;6.50;99.90
15713;DHT22;7957;51.608;6.916;2023-01-10T15:56:52;6.50;99.90
15713;DHT22;7957;51.608;6.916;2023-01-10T15:59:48;6.40;99.90
15713;DHT22;7957;51.608;6.916;2023-01-10T16:03:02;6.40;99.90
15713;DHT22;7957;51.608;6.916;2023-01-10T16:32:48;6.40;99.90
15713;DHT22;7957;51.608;6.916;2023-01-10T16:35:35;6.40;99.90
15713;DHT22;7957;51.608;6.916;2023-01-10T16:38:11;6.40;99.90
15713;DHT22;7957;51.608;6.916;2023-01-10T16:40:49;6.40;99.90
15713;DHT22;7957;51.608;6.916;2023-01-10T16:43:46;6.40;99.90
15713;DHT22;7957;51.608;6.916;2023-01-10T16:46:12;6.40;99.90
15713;DHT22;7957;51.608;6.916;2023-01-10T16:48:41;6.40;99.90
15713;DHT22;7957;51.608;6.916;2023-01-10T16:51:17;6.40;99.90
15713;DHT22;7957;51.608;6.916;2023-01-10T16:53:45;6.40;99.90
15713;DHT22;7957;51.608;6.916;2023-01-10T16:56:13;6.40;99.90
15713;DHT22;7957;51.608;6.916;2023-01-10T16:58:42;6.30;99.90
15713;DHT22;7957;51.608;6.916;2023-01-10T17:01:12;6.30;99.90
15713;DHT22;7957;51.608;6.916;2023-01-10T17:10:23;6.30;99.90
15713;DHT22;7957;51.608;6.916;2023-01-10T17:12:49;6.20;99.90
15713;DHT22;7957;51.608;6.916;2023-01-10T17:15:16;6.20;99.90
15713;DHT22;7957;51.608;6.916;2023-01-10T17:17:43;6.20;99.90
15713;DHT22;7957;51.608;6.916;2023-01-10T17:20:12;6.20;99.90
15713;DHT22;7957;51.608;6.916;2023-01-10T17:22:40;6.20;99.90
15713;DHT22;7957;51.608;6.916;2023-01-10T17:25:12;6.20;99.90
15713;DHT22;7957;51.608;6.916;2023-01-10T17:27:41;6.20;99.90
15713;DHT22;7957;51.608;6.916;2023-01-10T17:30:09;6.20;99.90
15713;DHT22;7957;51.608;6.916;2023-01-10T17:32:37;6.20;99.90
15713;DHT22;7957;51.608;6.916;2023-01-10T17:35:04;6.20;99.90
15713;DHT22;7957;51.608;6.916;2023-01-10T17:37:31;6.20;99.90
15713;DHT22;7957;51.608;6.916;2023-01-10T17:39:58;6.20;99.90
15713;DHT22;7957;51.608;6.916;2023-01-10T17:42:25;6.20;99.90
15713;DHT22;7957;51.608;6.916;2023-01-10T17:44:54;6.20;99.90
15713;DHT22;7957;51.608;6.916;2023-01-10T17:47:20;6.20;99.90
15713;DHT22;7957;51.608;6.916;2023-01-10T17:49:47;6.20;99.90
15713;DHT22;7957;51.608;6.916;2023-01-10T17:52:14;6.20;99.90
15713;DHT22;7957;51.608;6.916;2023-01-10T17:54:41;6.20;99.90
15713;DHT22;7957;51.608;6.916;2023-01-10T17:57:08;6.20;99.90
15713;DHT22;7957;51.608;6.916;2023-01-10T17:59:36;6.10;99.90
15713;DHT22;7957;51.608;6.916;2023-01-10T18:02:04;6.10;99.90
15713;DHT22;7957;51.608;6.916;2023-01-10T18:04:31;6.10;99.90
15713;DHT22;7957;51.608;6.916;2023-01-10T18:06:58;6.20;99.90
15713;DHT22;7957;51.608;6.916;2023-01-10T18:09:27;6.20;99.90
15713;DHT22;7957;51.608;6.916;2023-01-10T18:11:54;6.10;99.90
15713;DHT22;7957;51.608;6.916;2023-01-10T18:14:21;6.10;99.90
15713;DHT22;7957;51.608;6.916;2023-01-10T18:17:06;6.10;99.90
15713;DHT22;7957;51.608;6.916;2023-01-10T18:19:34;6.10;99.90
15713;DHT22;7957;51.608;6.916;2023-01-10T18:22:02;6.10;99.90
15713;DHT22;7957;51.608;6.916;2023-01-10T18:24:50;6.20;99.90
15713;DHT22;7957;51.608;6.916;2023-01-10T18:27:18;6.10;99.90
15713;DHT22;7957;51.608;6.916;2023-01-10T18:29:45;6.20;99.90
15713;DHT22;7957;51.608;6.916;2023-01-10T18:32:13;6.20;99.90
15713;DHT22;7957;51.608;6.916;2023-01-10T18:34:40;6.20;99.90
15713;DHT22;7957;51.608;6.916;2023-01-10T18:37:07;6.20;99.90
15713;DHT22;7957;51.608;6.916;2023-01-10T18:39:34;6.20;99.90
15713;DHT22;7957;51.608;6.916;2023-01-10T18:42:01;6.10;99.90
15713;DHT22;7957;51.608;6.916;2023-01-10T18:44:28;6.10;99.90
15713;DHT22;7957;51.608;6.916;2023-01-10T18:46:55;6.20;99.90
15713;DHT22;7957;51.608;6.916;2023-01-10T18:49:23;6.10;99.90
15713;DHT22;7957;51.608;6.916;2023-01-10T18:51:50;6.20;99.90
15713;DHT22;7957;51.608;6.916;2023-01-10T18:54:17;6.20;99.90
15713;DHT22;7957;51.608;6.916;2023-01-10T18:56:44;6.20;99.90
15713;DHT22;7957;51.608;6.916;2023-01-10T18:59:11;6.20;99.90
15713;DHT22;7957;51.608;6.916;2023-01-10T19:01:39;6.10;99.90
15713;DHT22;7957;51.608;6.916;2023-01-10T19:04:06;6.10;99.90
15713;DHT22;7957;51.608;6.916;2023-01-10T19:06:34;6.20;99.90
15713;DHT22;7957;51.608;6.916;2023-01-10T19:09:01;6.10;99.90
15713;DHT22;7957;51.608;6.916;2023-01-10T19:11:28;6.20;99.90
15713;DHT22;7957;51.608;6.916;2023-01-10T19:13:55;6.20;99.90
15713;DHT22;7957;51.608;6.916;2023-01-10T19:16:24;6.10;99.90
15713;DHT22;7957;51.608;6.916;2023-01-10T19:18:52;6.20;99.90
15713;DHT22;7957;51.608;6.916;2023-01-10T19:21:20;6.20;99.90
15713;DHT22;7957;51.608;6.916;2023-01-10T19:23:50;6.20;99.90
15713;DHT22;7957;51.608;6.916;2023-01-10T19:26:18;6.20;99.90
15713;DHT22;7957;51.608;6.916;2023-01-10T19:28:45;6.20;99.90
15713;DHT22;7957;51.608;6.916;2023-01-10T19:31:17;6.20;99.90
15713;DHT22;7957;51.608;6.916;2023-01-10T19:33:44;6.20;99.90
15713;DHT22;7957;51.608;6.916;2023-01-10T19:36:12;6.10;99.90